createdAt,value
2022-12-29T00:00:21.523Z,2.40
2022-12-29T00:01:20.470Z,2.70
2022-12-29T00:02:20.503Z,2.90
2022-12-29T00:03:20.557Z,2.80
2022-12-29T00:04:20.460Z,2.60
2022-12-29T00:05:20.471Z,2.40
2022-12-29T00:06:20.448Z,2.90
2022-12-29T00:07:20.459Z,2.40
2022-12-29T00:08:20.437Z,2.30
2022-12-29T00:09:20.412Z,2.40
2022-12-29T00:10:20.406Z,2.60
2022-12-29T00:11:20.404Z,2.10
2022-12-29T00:12:20.417Z,2.50
2022-12-29T00:13:20.508Z,2.40
2022-12-29T00:14:25.877Z,2.60
2022-12-29T00:15:22.399Z,2.50
2022-12-29T00:16:20.515Z,2.60
2022-12-29T00:17:20.407Z,2.50
2022-12-29T00:18:20.409Z,2.50
2022-12-29T00:19:20.385Z,2.60
2022-12-29T00:20:20.396Z,2.40
2022-12-29T00:21:20.362Z,2.60
2022-12-29T00:22:20.361Z,2.50
2022-12-29T00:23:20.348Z,2.60
2022-12-29T00:24:20.354Z,2.50
2022-12-29T00:25:20.372Z,2.70
2022-12-29T00:26:20.331Z,2.30
2022-12-29T00:27:20.326Z,2.90
2022-12-29T00:28:20.344Z,2.70
2022-12-29T00:29:20.372Z,2.60
2022-12-29T00:30:20.362Z,2.70
2022-12-29T00:31:20.391Z,2.60
2022-12-29T00:32:20.315Z,2.10
2022-12-29T00:33:20.488Z,2.10
2022-12-29T00:34:20.341Z,2.60
2022-12-29T00:35:20.353Z,2.30
2022-12-29T00:36:20.352Z,2.70
2022-12-29T00:37:20.863Z,2.80
2022-12-29T00:38:20.284Z,2.60
2022-12-29T00:39:20.389Z,2.20
2022-12-29T00:40:20.273Z,2.50
2022-12-29T00:41:20.558Z,2.40
2022-12-29T00:42:20.361Z,2.80
2022-12-29T00:43:20.326Z,2.50
2022-12-29T00:44:20.259Z,2.80
2022-12-29T00:45:20.278Z,2.30
2022-12-29T00:46:20.524Z,2.30
2022-12-29T00:47:20.308Z,2.30
2022-12-29T00:48:20.235Z,2.70
2022-12-29T00:49:20.245Z,2.60
2022-12-29T00:50:20.429Z,2.90
2022-12-29T00:51:20.260Z,2.40
2022-12-29T00:52:20.240Z,2.40
2022-12-29T00:53:20.219Z,2.20
2022-12-29T00:54:20.215Z,2.30
2022-12-29T00:55:20.220Z,2.80
2022-12-29T00:56:20.217Z,2.00
2022-12-29T00:57:20.209Z,2.40
2022-12-29T00:58:20.190Z,2.70
2022-12-29T00:59:20.206Z,2.30
2022-12-29T01:00:20.177Z,2.00
2022-12-29T01:01:20.235Z,2.10
2022-12-29T01:02:20.327Z,2.40
2022-12-29T01:03:20.274Z,2.00
2022-12-29T01:04:20.202Z,2.40
2022-12-29T01:05:20.176Z,2.30
2022-12-29T01:06:20.274Z,2.30
2022-12-29T01:07:20.157Z,2.40
2022-12-29T01:08:20.168Z,2.20
2022-12-29T01:09:20.343Z,2.50
2022-12-29T01:10:20.173Z,2.30
2022-12-29T01:11:20.156Z,2.40
2022-12-29T01:12:20.151Z,2.40
2022-12-29T01:13:20.110Z,2.20
2022-12-29T01:14:20.208Z,2.50
2022-12-29T01:15:20.135Z,2.00
2022-12-29T01:16:20.279Z,2.20
2022-12-29T01:17:20.105Z,2.10
2022-12-29T01:18:20.105Z,2.40
2022-12-29T01:19:20.093Z,2.20
2022-12-29T01:20:20.142Z,2.30
2022-12-29T01:21:20.068Z,2.30
2022-12-29T01:22:20.098Z,2.40
2022-12-29T01:23:20.082Z,2.20
2022-12-29T01:24:20.072Z,2.20
2022-12-29T01:25:20.095Z,2.50
2022-12-29T01:26:20.051Z,2.30
2022-12-29T01:27:20.057Z,2.30
2022-12-29T01:28:25.782Z,2.30
2022-12-29T01:29:22.044Z,2.30
2022-12-29T01:30:20.065Z,2.30
2022-12-29T01:31:20.101Z,2.40
2022-12-29T01:32:20.023Z,2.30
2022-12-29T01:33:20.039Z,2.30
2022-12-29T01:34:21.078Z,2.60
2022-12-29T01:35:20.003Z,2.50
2022-12-29T01:36:20.005Z,2.10
2022-12-29T01:37:20.001Z,2.30
2022-12-29T01:38:20.039Z,2.10
2022-12-29T01:39:19.999Z,2.50
2022-12-29T01:40:20.008Z,2.20
2022-12-29T01:41:20.007Z,2.30
2022-12-29T01:42:20.040Z,2.30
2022-12-29T01:43:19.983Z,2.60
2022-12-29T01:44:19.993Z,2.70
2022-12-29T01:45:19.969Z,2.50
2022-12-29T01:46:20.081Z,2.40
2022-12-29T01:47:19.964Z,2.60
2022-12-29T01:48:21.017Z,2.50
2022-12-29T01:49:20.000Z,2.70
2022-12-29T01:50:19.990Z,2.40
2022-12-29T01:51:19.952Z,2.40
2022-12-29T01:52:19.975Z,2.40
2022-12-29T01:53:19.916Z,2.30
2022-12-29T01:54:19.941Z,2.50
2022-12-29T01:55:19.949Z,2.50
2022-12-29T01:56:19.919Z,2.50
2022-12-29T01:57:19.885Z,2.80
2022-12-29T01:58:19.909Z,2.10
2022-12-29T01:59:19.919Z,2.60
2022-12-29T02:00:19.968Z,2.30
2022-12-29T02:01:20.030Z,3.00
2022-12-29T02:02:19.923Z,2.20
2022-12-29T02:03:20.009Z,2.50
2022-12-29T02:04:19.866Z,2.20
2022-12-29T02:05:19.914Z,2.10
2022-12-29T02:06:19.881Z,2.30
2022-12-29T02:07:19.874Z,2.50
2022-12-29T02:08:19.857Z,2.50
2022-12-29T02:09:19.855Z,2.30
2022-12-29T02:10:19.849Z,2.10
2022-12-29T02:11:19.861Z,2.30
2022-12-29T02:12:19.867Z,2.50
2022-12-29T02:13:19.910Z,2.40
2022-12-29T02:14:19.809Z,2.20
2022-12-29T02:15:19.828Z,2.40
2022-12-29T02:16:19.893Z,2.60
2022-12-29T02:17:19.875Z,2.60
2022-12-29T02:18:19.852Z,2.50
2022-12-29T02:19:19.799Z,2.40
2022-12-29T02:20:19.794Z,2.30
2022-12-29T02:21:19.791Z,2.30
2022-12-29T02:22:19.788Z,2.70
2022-12-29T02:23:19.789Z,2.30
2022-12-29T02:24:19.809Z,2.50
2022-12-29T02:25:19.825Z,2.30
2022-12-29T02:26:19.789Z,2.60
2022-12-29T02:27:19.786Z,2.20
2022-12-29T02:28:19.787Z,2.20
2022-12-29T02:29:19.832Z,2.20
2022-12-29T02:30:19.759Z,2.20
2022-12-29T02:31:19.748Z,2.00
2022-12-29T02:32:19.756Z,2.10
2022-12-29T02:33:19.752Z,2.20
2022-12-29T02:34:19.738Z,2.00
2022-12-29T02:35:19.708Z,2.30
2022-12-29T02:36:20.673Z,2.30
2022-12-29T02:37:19.735Z,2.00
2022-12-29T02:38:19.700Z,2.40
2022-12-29T02:39:19.722Z,2.00
2022-12-29T02:40:19.692Z,2.40
2022-12-29T02:41:19.753Z,2.20
2022-12-29T02:42:19.814Z,1.90
2022-12-29T02:43:19.674Z,2.00
2022-12-29T02:44:19.761Z,1.70
2022-12-29T02:45:19.659Z,1.80
2022-12-29T02:46:19.700Z,1.80
2022-12-29T02:47:19.683Z,1.70
2022-12-29T02:48:19.644Z,1.90
2022-12-29T02:49:19.773Z,1.50
2022-12-29T02:50:19.650Z,1.70
2022-12-29T02:51:19.653Z,1.80
2022-12-29T02:52:19.614Z,1.50
2022-12-29T02:53:19.615Z,1.20
2022-12-29T02:54:19.649Z,1.20
2022-12-29T02:55:19.639Z,1.40
2022-12-29T02:56:19.602Z,1.60
2022-12-29T02:57:19.595Z,1.40
2022-12-29T02:58:19.580Z,1.20
2022-12-29T02:59:19.578Z,1.20
2022-12-29T03:00:19.605Z,1.10
2022-12-29T03:01:20.026Z,1.20
2022-12-29T03:02:19.743Z,1.00
2022-12-29T03:03:19.656Z,1.00
2022-12-29T03:04:19.575Z,1.20
2022-12-29T03:05:19.586Z,1.00
2022-12-29T03:06:19.561Z,1.10
2022-12-29T03:07:19.524Z,0.90
2022-12-29T03:08:19.537Z,1.00
2022-12-29T03:09:19.581Z,1.10
2022-12-29T03:10:19.536Z,0.90
2022-12-29T03:11:19.556Z,1.00
2022-12-29T03:12:19.501Z,1.00
2022-12-29T03:13:19.499Z,1.00
2022-12-29T03:14:19.493Z,0.90
2022-12-29T03:15:19.487Z,1.00
2022-12-29T03:16:19.556Z,0.80
2022-12-29T03:17:19.486Z,0.90
2022-12-29T03:18:19.469Z,0.80
2022-12-29T03:19:19.487Z,1.00
2022-12-29T03:20:19.461Z,0.90
2022-12-29T03:21:19.534Z,0.90
2022-12-29T03:22:19.496Z,0.80
2022-12-29T03:23:19.467Z,0.90
2022-12-29T03:24:19.553Z,0.80
2022-12-29T03:25:19.536Z,0.80
2022-12-29T03:26:19.473Z,0.80
2022-12-29T03:27:19.445Z,0.80
2022-12-29T03:28:19.469Z,0.70
2022-12-29T03:29:19.452Z,0.90
2022-12-29T03:30:19.419Z,0.80
2022-12-29T03:31:19.468Z,0.70
2022-12-29T03:32:19.450Z,0.80
2022-12-29T03:33:19.403Z,0.70
2022-12-29T03:34:19.406Z,0.70
2022-12-29T03:35:19.394Z,0.70
2022-12-29T03:36:19.400Z,1.30
2022-12-29T03:37:19.431Z,0.80
2022-12-29T03:38:19.395Z,0.60
2022-12-29T03:39:19.373Z,0.70
2022-12-29T03:40:19.364Z,0.80
2022-12-29T03:41:19.343Z,0.80
2022-12-29T03:42:19.373Z,0.60
2022-12-29T03:43:19.389Z,0.70
2022-12-29T03:44:19.329Z,0.60
2022-12-29T03:45:19.363Z,0.70
2022-12-29T03:46:19.358Z,0.80
2022-12-29T03:47:19.305Z,0.70
2022-12-29T03:48:19.311Z,0.70
2022-12-29T03:49:19.323Z,0.80
2022-12-29T03:50:19.344Z,0.70
2022-12-29T03:51:19.301Z,0.90
2022-12-29T03:52:19.278Z,0.80
2022-12-29T03:53:19.287Z,0.60
2022-12-29T03:54:19.280Z,0.70
2022-12-29T03:55:19.378Z,0.70
2022-12-29T03:56:19.262Z,1.20
2022-12-29T03:57:19.250Z,0.60
2022-12-29T03:58:19.263Z,0.80
2022-12-29T03:59:19.251Z,0.70
2022-12-29T04:00:19.271Z,0.60
2022-12-29T04:01:19.351Z,0.70
2022-12-29T04:02:19.364Z,0.60
2022-12-29T04:03:19.271Z,1.10
2022-12-29T04:04:19.227Z,0.80
2022-12-29T04:05:19.264Z,0.70
2022-12-29T04:06:19.210Z,0.80
2022-12-29T04:07:19.201Z,0.70
2022-12-29T04:08:19.212Z,0.60
2022-12-29T04:09:19.210Z,0.60
2022-12-29T04:10:19.239Z,0.50
2022-12-29T04:11:19.185Z,0.60
2022-12-29T04:12:19.170Z,0.70
2022-12-29T04:13:19.194Z,0.70
2022-12-29T04:14:19.167Z,0.60
2022-12-29T04:15:19.185Z,0.70
2022-12-29T04:16:19.285Z,0.60
2022-12-29T04:17:19.168Z,0.70
2022-12-29T04:18:19.168Z,0.60
2022-12-29T04:19:19.143Z,0.60
2022-12-29T04:20:19.139Z,0.80
2022-12-29T04:21:19.166Z,0.70
2022-12-29T04:22:19.137Z,0.80
2022-12-29T04:23:19.123Z,0.60
2022-12-29T04:24:19.135Z,0.60
2022-12-29T04:25:19.104Z,0.70
2022-12-29T04:26:19.128Z,0.60
2022-12-29T04:27:19.139Z,0.60
2022-12-29T04:28:19.138Z,0.70
2022-12-29T04:29:19.086Z,0.70
2022-12-29T04:30:19.097Z,0.60
2022-12-29T04:31:19.230Z,0.60
2022-12-29T04:32:19.110Z,0.60
2022-12-29T04:33:19.088Z,0.80
2022-12-29T04:34:19.064Z,0.60
2022-12-29T04:35:19.070Z,0.70
2022-12-29T04:36:19.049Z,0.90
2022-12-29T04:37:19.113Z,0.80
2022-12-29T04:38:19.053Z,0.70
2022-12-29T04:39:19.052Z,0.70
2022-12-29T04:40:19.052Z,0.70
2022-12-29T04:41:19.035Z,0.70
2022-12-29T04:42:19.064Z,0.90
2022-12-29T04:43:19.025Z,0.80
2022-12-29T04:44:19.019Z,0.70
2022-12-29T04:45:19.011Z,0.80
2022-12-29T04:46:19.057Z,0.70
2022-12-29T04:47:18.996Z,0.80
2022-12-29T04:48:19.016Z,0.80
2022-12-29T04:49:19.024Z,0.80
2022-12-29T04:50:18.978Z,0.80
2022-12-29T04:51:18.988Z,0.80
2022-12-29T04:52:20.000Z,0.90
2022-12-29T04:53:18.954Z,0.80
2022-12-29T04:54:18.999Z,0.90
2022-12-29T04:55:18.966Z,0.80
2022-12-29T04:56:18.979Z,0.70
2022-12-29T04:57:18.951Z,0.80
2022-12-29T04:58:22.594Z,0.80
2022-12-29T04:59:19.978Z,0.80
2022-12-29T05:00:18.959Z,0.90
2022-12-29T05:01:18.969Z,1.30
2022-12-29T05:02:19.026Z,1.00
2022-12-29T05:03:19.107Z,0.90
2022-12-29T05:04:18.939Z,0.90
2022-12-29T05:05:18.945Z,0.90
2022-12-29T05:06:18.890Z,1.10
2022-12-29T05:07:18.893Z,0.90
2022-12-29T05:08:24.672Z,0.90
2022-12-29T05:09:20.879Z,1.00
2022-12-29T05:10:18.899Z,0.90
2022-12-29T05:11:18.931Z,0.90
2022-12-29T05:12:18.874Z,0.80
2022-12-29T05:13:18.875Z,0.80
2022-12-29T05:14:18.892Z,0.80
2022-12-29T05:15:18.874Z,0.80
2022-12-29T05:16:18.885Z,0.70
2022-12-29T05:17:18.842Z,0.70
2022-12-29T05:18:19.900Z,1.00
2022-12-29T05:19:19.499Z,0.90
2022-12-29T05:20:18.851Z,0.80
2022-12-29T05:21:18.810Z,0.70
2022-12-29T05:22:18.825Z,0.90
2022-12-29T05:23:18.839Z,1.00
2022-12-29T05:24:18.806Z,0.80
2022-12-29T05:25:18.827Z,0.80
2022-12-29T05:26:18.783Z,0.90
2022-12-29T05:27:18.888Z,0.80
2022-12-29T05:28:18.781Z,0.80
2022-12-29T05:29:18.783Z,0.80
2022-12-29T05:30:18.831Z,0.80
2022-12-29T05:31:18.831Z,0.80
2022-12-29T05:32:18.790Z,1.00
2022-12-29T05:33:18.758Z,0.80
2022-12-29T05:34:18.736Z,1.00
2022-12-29T05:35:18.776Z,0.70
2022-12-29T05:36:18.724Z,0.90
2022-12-29T05:37:18.708Z,0.90
2022-12-29T05:38:18.711Z,0.80
2022-12-29T05:39:18.739Z,0.80
2022-12-29T05:40:18.737Z,0.90
2022-12-29T05:41:18.748Z,0.90
2022-12-29T05:42:18.712Z,0.90
2022-12-29T05:43:18.810Z,0.90
2022-12-29T05:44:18.696Z,0.70
2022-12-29T05:45:18.686Z,0.80
2022-12-29T05:46:18.736Z,0.90
2022-12-29T05:47:18.687Z,1.00
2022-12-29T05:48:18.706Z,0.90
2022-12-29T05:49:18.705Z,1.00
2022-12-29T05:50:18.640Z,1.00
2022-12-29T05:51:18.682Z,1.00
2022-12-29T05:52:18.634Z,1.00
2022-12-29T05:53:18.648Z,1.10
2022-12-29T05:54:18.668Z,1.10
2022-12-29T05:55:18.695Z,1.20
2022-12-29T05:56:18.619Z,1.50
2022-12-29T05:57:18.629Z,1.10
2022-12-29T05:58:18.618Z,1.20
2022-12-29T05:59:18.637Z,1.00
2022-12-29T06:00:18.625Z,1.20
2022-12-29T06:01:18.732Z,1.30
2022-12-29T06:02:18.796Z,1.00
2022-12-29T06:03:18.762Z,1.20
2022-12-29T06:04:18.588Z,1.10
2022-12-29T06:05:18.564Z,1.20
2022-12-29T06:06:18.572Z,2.30
2022-12-29T06:07:18.558Z,1.60
2022-12-29T06:08:18.559Z,1.30
2022-12-29T06:09:18.587Z,1.20
2022-12-29T06:10:18.542Z,1.50
2022-12-29T06:11:18.572Z,1.30
2022-12-29T06:12:18.536Z,1.40
2022-12-29T06:13:18.522Z,1.40
2022-12-29T06:14:18.559Z,1.40
2022-12-29T06:15:18.561Z,1.20
2022-12-29T06:16:18.563Z,1.60
2022-12-29T06:17:18.544Z,1.40
2022-12-29T06:18:20.261Z,1.30
2022-12-29T06:19:19.497Z,1.50
2022-12-29T06:20:18.491Z,1.60
2022-12-29T06:21:18.505Z,1.70
2022-12-29T06:22:18.498Z,1.50
2022-12-29T06:23:18.484Z,1.60
2022-12-29T06:24:18.472Z,1.60
2022-12-29T06:25:18.516Z,2.10
2022-12-29T06:26:18.479Z,1.70
2022-12-29T06:27:18.466Z,1.50
2022-12-29T06:28:18.467Z,1.60
2022-12-29T06:29:18.503Z,1.70
2022-12-29T06:30:18.482Z,1.70
2022-12-29T06:31:18.508Z,1.80
2022-12-29T06:32:18.440Z,1.80
2022-12-29T06:33:18.470Z,1.80
2022-12-29T06:34:18.420Z,1.80
2022-12-29T06:35:18.435Z,1.70
2022-12-29T06:36:18.505Z,1.80
2022-12-29T06:37:18.425Z,2.20
2022-12-29T06:38:18.433Z,2.50
2022-12-29T06:39:18.410Z,2.10
2022-12-29T06:40:18.416Z,2.50
2022-12-29T06:41:18.406Z,2.40
2022-12-29T06:42:18.476Z,1.80
2022-12-29T06:43:18.421Z,2.30
2022-12-29T06:44:18.386Z,2.00
2022-12-29T06:45:18.402Z,2.40
2022-12-29T06:46:18.404Z,2.00
2022-12-29T06:47:18.397Z,1.90
2022-12-29T06:48:18.370Z,2.20
2022-12-29T06:49:18.377Z,1.90
2022-12-29T06:50:18.340Z,2.10
2022-12-29T06:51:18.336Z,2.20
2022-12-29T06:52:18.357Z,2.30
2022-12-29T06:53:18.324Z,2.10
2022-12-29T06:54:18.357Z,1.80
2022-12-29T06:55:18.324Z,2.00
2022-12-29T06:56:18.359Z,2.00
2022-12-29T06:57:18.309Z,2.40
2022-12-29T06:58:18.318Z,2.30
2022-12-29T06:59:18.307Z,2.10
2022-12-29T07:00:22.773Z,1.80
2022-12-29T07:01:19.461Z,2.10
2022-12-29T07:02:18.395Z,2.30
2022-12-29T07:03:18.407Z,2.20
2022-12-29T07:04:18.269Z,2.10
2022-12-29T07:05:18.324Z,2.30
2022-12-29T07:06:18.251Z,2.20
2022-12-29T07:07:18.257Z,2.10
2022-12-29T07:08:18.312Z,2.00
2022-12-29T07:09:18.235Z,2.30
2022-12-29T07:10:18.230Z,2.10
2022-12-29T07:11:18.280Z,2.10
2022-12-29T07:12:18.233Z,2.00
2022-12-29T07:13:18.262Z,2.30
2022-12-29T07:14:18.213Z,2.20
2022-12-29T07:15:18.240Z,2.00
2022-12-29T07:16:18.234Z,2.10
2022-12-29T07:17:18.205Z,2.30
2022-12-29T07:18:18.204Z,2.40
2022-12-29T07:19:18.207Z,1.90
2022-12-29T07:20:23.209Z,1.90
2022-12-29T07:21:20.187Z,2.10
2022-12-29T07:22:18.175Z,2.10
2022-12-29T07:23:18.164Z,2.10
2022-12-29T07:24:18.210Z,2.40
2022-12-29T07:25:18.151Z,1.90
2022-12-29T07:26:18.167Z,1.80
2022-12-29T07:27:18.140Z,1.60
2022-12-29T07:28:18.193Z,2.00
2022-12-29T07:29:18.160Z,1.80
2022-12-29T07:30:19.131Z,1.90
2022-12-29T07:31:18.212Z,1.90
2022-12-29T07:32:18.224Z,1.50
2022-12-29T07:33:19.140Z,1.70
2022-12-29T07:34:18.152Z,1.60
2022-12-29T07:35:18.131Z,1.80
2022-12-29T07:36:18.139Z,1.50
2022-12-29T07:37:18.100Z,2.10
2022-12-29T07:38:18.129Z,2.00
2022-12-29T07:39:18.108Z,2.10
2022-12-29T07:40:18.120Z,1.70
2022-12-29T07:41:18.119Z,1.60
2022-12-29T07:42:18.082Z,1.70
2022-12-29T07:43:18.060Z,1.80
2022-12-29T07:44:18.069Z,2.00
2022-12-29T07:45:18.046Z,1.80
2022-12-29T07:46:56.437Z,1.60
2022-12-29T07:47:20.076Z,1.80
2022-12-29T07:48:18.037Z,1.80
2022-12-29T07:49:18.027Z,1.40
2022-12-29T07:50:19.076Z,2.30
2022-12-29T07:51:18.009Z,1.80
2022-12-29T07:52:18.057Z,1.90
2022-12-29T07:53:18.049Z,1.90
2022-12-29T07:54:17.996Z,1.80
2022-12-29T07:55:18.023Z,1.50
2022-12-29T07:56:17.989Z,1.70
2022-12-29T07:57:17.999Z,2.20
2022-12-29T07:58:18.055Z,1.80
2022-12-29T07:59:17.980Z,1.70
2022-12-29T08:00:17.999Z,1.90
2022-12-29T08:01:18.157Z,2.00
2022-12-29T08:02:18.115Z,2.00
2022-12-29T08:03:18.000Z,1.80
2022-12-29T08:04:18.012Z,2.00
2022-12-29T08:05:18.087Z,2.10
2022-12-29T08:06:17.946Z,1.90
2022-12-29T08:07:17.967Z,1.60
2022-12-29T08:08:17.912Z,2.10
2022-12-29T08:09:22.427Z,1.90
2022-12-29T08:10:19.938Z,1.80
2022-12-29T08:11:17.905Z,2.00
2022-12-29T08:12:17.924Z,1.90
2022-12-29T08:13:18.014Z,2.20
2022-12-29T08:14:17.901Z,2.00
2022-12-29T08:15:17.885Z,1.60
2022-12-29T08:16:18.326Z,1.90
2022-12-29T08:17:17.879Z,1.80
2022-12-29T08:18:17.880Z,1.50
2022-12-29T08:19:17.884Z,1.60
2022-12-29T08:20:17.888Z,1.60
2022-12-29T08:21:18.002Z,1.90
2022-12-29T08:22:17.883Z,1.30
2022-12-29T08:23:17.867Z,1.50
2022-12-29T08:24:17.844Z,1.60
2022-12-29T08:25:17.870Z,1.40
2022-12-29T08:26:17.904Z,1.40
2022-12-29T08:27:20.665Z,1.40
2022-12-29T08:28:18.818Z,1.40
2022-12-29T08:29:17.827Z,1.20
2022-12-29T08:30:17.815Z,1.40
2022-12-29T08:31:17.853Z,1.20
2022-12-29T08:32:17.786Z,1.40
2022-12-29T08:33:17.783Z,1.40
2022-12-29T08:34:17.816Z,1.30
2022-12-29T08:35:17.798Z,1.30
2022-12-29T08:36:17.917Z,1.10
2022-12-29T08:37:17.782Z,1.40
2022-12-29T08:38:17.751Z,1.30
2022-12-29T08:39:17.731Z,1.60
2022-12-29T08:40:17.757Z,1.30
2022-12-29T08:41:17.743Z,1.20
2022-12-29T08:42:17.757Z,1.30
2022-12-29T08:43:18.714Z,1.40
2022-12-29T08:44:18.755Z,1.30
2022-12-29T08:45:17.807Z,1.40
2022-12-29T08:46:17.838Z,1.60
2022-12-29T08:47:17.697Z,1.50
2022-12-29T08:48:17.733Z,1.30
2022-12-29T08:49:17.753Z,1.30
2022-12-29T08:50:17.696Z,1.30
2022-12-29T08:51:22.834Z,1.50
2022-12-29T08:52:19.684Z,1.30
2022-12-29T08:53:17.770Z,1.40
2022-12-29T08:54:17.691Z,1.10
2022-12-29T08:55:17.677Z,1.20
2022-12-29T08:56:17.656Z,1.40
2022-12-29T08:57:17.762Z,1.10
2022-12-29T08:58:17.683Z,1.20
2022-12-29T08:59:17.654Z,0.80
2022-12-29T09:00:17.632Z,1.00
2022-12-29T09:01:17.727Z,1.50
2022-12-29T09:02:24.363Z,1.00
2022-12-29T09:03:37.823Z,1.00
2022-12-29T09:04:19.951Z,0.80
2022-12-29T09:05:17.680Z,0.90
2022-12-29T09:06:18.643Z,0.80
2022-12-29T09:07:17.643Z,0.70
2022-12-29T09:08:22.325Z,0.70
2022-12-29T09:09:19.610Z,0.80
2022-12-29T09:10:17.593Z,0.70
2022-12-29T09:11:17.572Z,0.90
2022-12-29T09:12:17.610Z,0.70
2022-12-29T09:13:17.630Z,0.90
2022-12-29T09:14:17.603Z,0.80
2022-12-29T09:15:17.537Z,0.80
2022-12-29T09:16:17.649Z,0.80
2022-12-29T09:17:17.660Z,0.90
2022-12-29T09:18:20.881Z,0.80
2022-12-29T09:19:18.539Z,0.90
2022-12-29T09:20:17.530Z,0.90
2022-12-29T09:21:17.541Z,0.80
2022-12-29T09:22:17.554Z,0.80
2022-12-29T09:23:17.563Z,1.00
2022-12-29T09:24:17.516Z,0.80
2022-12-29T09:25:17.574Z,1.00
2022-12-29T09:26:17.498Z,0.70
2022-12-29T09:27:17.496Z,1.00
2022-12-29T09:28:17.521Z,0.90
2022-12-29T09:29:17.482Z,0.80
2022-12-29T09:30:17.517Z,0.70
2022-12-29T09:31:17.569Z,0.70
2022-12-29T09:32:18.958Z,0.90
2022-12-29T09:33:18.480Z,1.10
2022-12-29T09:34:17.606Z,0.80
2022-12-29T09:35:17.499Z,1.10
2022-12-29T09:36:17.456Z,1.40
2022-12-29T09:37:17.436Z,0.90
2022-12-29T09:38:17.430Z,0.80
2022-12-29T09:39:17.465Z,0.90
2022-12-29T09:40:17.451Z,0.90
2022-12-29T09:41:17.418Z,0.90
2022-12-29T09:42:17.413Z,0.90
2022-12-29T09:43:17.391Z,0.80
2022-12-29T09:44:17.426Z,1.10
2022-12-29T09:45:17.422Z,0.90
2022-12-29T09:46:17.402Z,0.90
2022-12-29T09:47:17.395Z,1.00
2022-12-29T09:48:17.378Z,0.80
2022-12-29T09:49:17.412Z,0.90
2022-12-29T09:50:17.404Z,0.80
2022-12-29T09:51:17.375Z,0.80
2022-12-29T09:52:17.363Z,0.90
2022-12-29T09:53:17.333Z,0.80
2022-12-29T09:54:17.356Z,0.90
2022-12-29T09:55:17.338Z,0.70
2022-12-29T09:56:17.353Z,1.00
2022-12-29T09:57:17.351Z,1.00
2022-12-29T09:58:17.339Z,0.70
2022-12-29T09:59:17.345Z,0.80
2022-12-29T10:00:17.313Z,0.90
2022-12-29T10:01:17.545Z,0.70
2022-12-29T10:02:17.423Z,0.80
2022-12-29T10:03:17.473Z,0.70
2022-12-29T10:04:17.309Z,0.80
2022-12-29T10:05:17.277Z,0.90
2022-12-29T10:06:17.295Z,0.70
2022-12-29T10:07:29.481Z,0.80
2022-12-29T10:08:19.260Z,0.70
2022-12-29T10:09:17.293Z,0.90
2022-12-29T10:10:17.424Z,0.70
2022-12-29T10:11:17.556Z,0.80
2022-12-29T10:12:17.234Z,0.60
2022-12-29T10:13:17.232Z,0.80
2022-12-29T10:14:17.219Z,0.70
2022-12-29T10:15:17.224Z,0.70
2022-12-29T10:16:17.267Z,1.00
2022-12-29T10:17:17.191Z,1.60
2022-12-29T10:18:17.181Z,0.90
2022-12-29T10:19:17.207Z,0.80
2022-12-29T10:20:17.199Z,0.70
2022-12-29T10:21:17.199Z,0.80
2022-12-29T10:22:17.164Z,0.90
2022-12-29T10:23:17.179Z,0.80
2022-12-29T10:24:17.241Z,0.70
2022-12-29T10:25:17.187Z,1.00
2022-12-29T10:26:17.143Z,0.70
2022-12-29T10:27:17.133Z,0.70
2022-12-29T10:28:17.120Z,0.80
2022-12-29T10:29:17.136Z,0.90
2022-12-29T10:30:17.119Z,0.70
2022-12-29T10:31:17.149Z,0.70
2022-12-29T10:32:17.131Z,0.70
2022-12-29T10:33:17.095Z,0.80
2022-12-29T10:34:17.117Z,0.70
2022-12-29T10:35:17.107Z,0.70
2022-12-29T10:36:17.065Z,0.70
2022-12-29T10:37:17.089Z,0.70
2022-12-29T10:38:17.083Z,0.80
2022-12-29T10:39:17.067Z,0.80
2022-12-29T10:40:17.113Z,0.70
2022-12-29T10:41:17.085Z,0.90
2022-12-29T10:42:17.124Z,0.80
2022-12-29T10:43:21.131Z,0.70
2022-12-29T10:44:18.047Z,0.80
2022-12-29T10:45:17.033Z,0.80
2022-12-29T10:46:17.104Z,0.80
2022-12-29T10:47:17.025Z,0.60
2022-12-29T10:48:16.998Z,0.70
2022-12-29T10:49:21.584Z,0.70
2022-12-29T10:50:18.986Z,1.10
2022-12-29T10:51:16.969Z,0.70
2022-12-29T10:52:17.014Z,0.70
2022-12-29T10:53:16.966Z,0.60
2022-12-29T10:54:16.960Z,0.90
2022-12-29T10:55:16.967Z,0.80
2022-12-29T10:56:17.080Z,0.60
2022-12-29T10:57:16.964Z,0.70
2022-12-29T10:58:16.959Z,0.90
2022-12-29T10:59:16.969Z,0.70
2022-12-29T11:00:17.048Z,0.70
2022-12-29T11:01:16.970Z,0.70
2022-12-29T11:02:17.061Z,0.60
2022-12-29T11:03:16.962Z,0.80
2022-12-29T11:04:16.894Z,0.80
2022-12-29T11:05:16.924Z,0.80
2022-12-29T11:06:16.884Z,0.50
2022-12-29T11:07:18.122Z,0.60
2022-12-29T11:08:16.856Z,0.50
2022-12-29T11:09:16.905Z,0.70
2022-12-29T11:10:16.908Z,0.80
2022-12-29T11:11:16.845Z,0.70
2022-12-29T11:12:16.876Z,0.60
2022-12-29T11:13:16.868Z,0.50
2022-12-29T11:14:16.868Z,0.60
2022-12-29T11:15:16.843Z,0.60
2022-12-29T11:16:16.939Z,0.70
2022-12-29T11:17:16.811Z,0.70
2022-12-29T11:18:16.807Z,0.60
2022-12-29T11:19:16.866Z,0.60
2022-12-29T11:20:16.777Z,0.70
2022-12-29T11:21:17.806Z,0.60
2022-12-29T11:22:16.795Z,0.70
2022-12-29T11:23:16.770Z,0.50
2022-12-29T11:24:16.815Z,0.70
2022-12-29T11:25:16.943Z,0.70
2022-12-29T11:26:16.760Z,0.70
2022-12-29T11:27:16.791Z,0.80
2022-12-29T11:28:16.762Z,0.60
2022-12-29T11:29:16.775Z,0.60
2022-12-29T11:30:16.763Z,0.60
2022-12-29T11:31:16.909Z,0.90
2022-12-29T11:32:16.828Z,0.80
2022-12-29T11:33:16.716Z,0.70
2022-12-29T11:34:16.715Z,0.60
2022-12-29T11:35:16.716Z,0.60
2022-12-29T11:36:16.727Z,0.70
2022-12-29T11:37:16.696Z,0.70
2022-12-29T11:38:16.701Z,0.80
2022-12-29T11:39:16.681Z,0.70
2022-12-29T11:40:16.717Z,0.70
2022-12-29T11:41:16.833Z,0.60
2022-12-29T11:42:16.659Z,0.50
2022-12-29T11:43:16.677Z,0.70
2022-12-29T11:44:16.643Z,1.30
2022-12-29T11:45:16.694Z,0.50
2022-12-29T11:46:16.703Z,0.80
2022-12-29T11:47:16.612Z,0.60
2022-12-29T11:48:16.631Z,0.80
2022-12-29T11:49:16.613Z,0.60
2022-12-29T11:50:16.773Z,0.70
2022-12-29T11:51:20.410Z,0.70
2022-12-29T11:52:18.595Z,0.80
2022-12-29T11:53:16.600Z,0.80
2022-12-29T11:54:16.568Z,1.00
2022-12-29T11:55:16.568Z,0.80
2022-12-29T11:56:16.603Z,0.90
2022-12-29T11:57:16.567Z,0.80
2022-12-29T11:58:16.557Z,0.70
2022-12-29T11:59:16.578Z,0.80
2022-12-29T12:00:16.548Z,0.70
2022-12-29T12:01:16.555Z,1.10
2022-12-29T12:02:16.727Z,1.10
2022-12-29T12:03:16.612Z,0.80
2022-12-29T12:04:16.632Z,1.00
2022-12-29T12:05:16.501Z,1.00
2022-12-29T12:06:16.540Z,0.70
2022-12-29T12:07:16.532Z,0.70
2022-12-29T12:08:20.694Z,0.80
2022-12-29T12:09:17.493Z,1.10
2022-12-29T12:10:16.474Z,0.80
2022-12-29T12:11:16.487Z,1.00
2022-12-29T12:12:16.470Z,0.80
2022-12-29T12:13:16.562Z,0.80
2022-12-29T12:14:16.442Z,0.90
2022-12-29T12:15:16.459Z,0.80
2022-12-29T12:16:16.511Z,1.20
2022-12-29T12:17:16.445Z,0.90
2022-12-29T12:18:16.441Z,0.80
2022-12-29T12:19:16.441Z,0.70
2022-12-29T12:20:16.548Z,0.70
2022-12-29T12:21:16.407Z,0.90
2022-12-29T12:22:16.395Z,1.70
2022-12-29T12:23:16.428Z,1.00
2022-12-29T12:24:16.454Z,0.90
2022-12-29T12:25:16.388Z,0.90
2022-12-29T12:26:16.370Z,0.80
2022-12-29T12:27:16.353Z,0.70
2022-12-29T12:28:16.342Z,1.20
2022-12-29T12:29:16.391Z,0.90
2022-12-29T12:30:16.389Z,0.90
2022-12-29T12:31:16.550Z,0.90
2022-12-29T12:32:16.327Z,0.80
2022-12-29T12:33:16.306Z,0.80
2022-12-29T12:34:16.361Z,0.80
2022-12-29T12:35:21.553Z,0.90
2022-12-29T12:36:18.293Z,0.80
2022-12-29T12:37:16.288Z,0.80
2022-12-29T12:38:16.285Z,1.00
2022-12-29T12:39:16.288Z,0.80
2022-12-29T12:40:16.342Z,0.80
2022-12-29T12:41:21.485Z,0.80
2022-12-29T12:42:18.301Z,0.90
2022-12-29T12:43:16.281Z,0.90
2022-12-29T12:44:16.255Z,0.70
2022-12-29T12:45:16.322Z,1.00
2022-12-29T12:46:16.377Z,0.80
2022-12-29T12:47:16.267Z,0.80
2022-12-29T12:48:16.231Z,0.80
2022-12-29T12:49:16.215Z,0.70
2022-12-29T12:50:16.199Z,0.80
2022-12-29T12:51:16.203Z,0.80
2022-12-29T12:52:16.301Z,1.10
2022-12-29T12:53:16.183Z,0.70
2022-12-29T12:54:16.197Z,0.80
2022-12-29T12:55:16.213Z,0.90
2022-12-29T12:56:16.199Z,0.80
2022-12-29T12:57:16.201Z,0.90
2022-12-29T12:58:16.178Z,0.80
2022-12-29T12:59:16.144Z,1.10
2022-12-29T13:00:16.153Z,0.80
2022-12-29T13:01:16.204Z,0.90
2022-12-29T13:02:16.362Z,0.60
2022-12-29T13:03:16.326Z,0.80
2022-12-29T13:04:16.150Z,0.90
2022-12-29T13:05:17.449Z,0.80
2022-12-29T13:06:16.160Z,0.80
2022-12-29T13:07:16.119Z,0.80
2022-12-29T13:08:16.152Z,0.80
2022-12-29T13:09:16.131Z,1.00
2022-12-29T13:10:16.194Z,1.30
2022-12-29T13:11:16.116Z,0.70
2022-12-29T13:12:16.144Z,1.00
2022-12-29T13:13:16.178Z,0.80
2022-12-29T13:14:16.091Z,1.00
2022-12-29T13:15:16.068Z,0.80
2022-12-29T13:16:16.082Z,0.90
2022-12-29T13:17:16.117Z,0.80
2022-12-29T13:18:16.047Z,0.90